createdAt,value
2018-06-12T00:06:12.157Z,99.90
2018-06-12T00:08:41.018Z,99.90
2018-06-12T00:11:09.934Z,99.90
2018-06-12T00:13:38.712Z,99.90
2018-06-12T00:16:07.538Z,99.90
2018-06-12T00:18:36.512Z,99.90
2018-06-12T00:21:05.371Z,99.90
2018-06-12T00:23:34.200Z,99.90
2018-06-12T00:26:03.020Z,99.90
2018-06-12T00:28:31.791Z,99.90
2018-06-12T00:31:00.749Z,99.90
2018-06-12T00:33:29.594Z,99.90
2018-06-12T00:35:58.483Z,99.90
2018-06-12T00:38:27.332Z,99.90
2018-06-12T00:40:56.199Z,99.90
2018-06-12T00:43:25.086Z,99.90
2018-06-12T00:45:54.664Z,99.90
2018-06-12T00:48:23.938Z,99.90
2018-06-12T00:50:52.759Z,99.90
2018-06-12T00:53:21.630Z,99.90
2018-06-12T00:55:50.505Z,99.90
2018-06-12T00:58:19.426Z,99.90
2018-06-12T01:00:48.323Z,99.90
2018-06-12T01:03:27.058Z,99.90
2018-06-12T01:05:55.932Z,99.90
2018-06-12T01:08:24.840Z,99.90
2018-06-12T01:10:53.736Z,99.90
2018-06-12T01:13:22.589Z,99.90
2018-06-12T01:15:51.527Z,99.90
2018-06-12T01:18:20.428Z,99.90
2018-06-12T01:20:49.356Z,99.90
2018-06-12T01:23:18.218Z,99.90
2018-06-12T01:25:47.069Z,99.90
2018-06-12T01:28:15.985Z,99.90
2018-06-12T01:30:44.870Z,99.90
2018-06-12T01:33:13.784Z,99.90
2018-06-12T01:35:42.594Z,99.90
2018-06-12T01:38:11.570Z,99.90
2018-06-12T01:40:40.448Z,99.90
2018-06-12T01:43:09.309Z,99.90
2018-06-12T01:45:38.234Z,99.90
2018-06-12T01:48:07.143Z,99.90
2018-06-12T01:50:36.077Z,99.90
2018-06-12T01:53:04.948Z,99.90
2018-06-12T01:55:34.171Z,99.90
2018-06-12T01:58:03.067Z,99.90
2018-06-12T02:00:31.938Z,99.90
2018-06-12T02:03:00.851Z,99.90
2018-06-12T02:05:29.781Z,99.90
2018-06-12T02:07:58.672Z,99.90
2018-06-12T02:10:27.506Z,99.90
2018-06-12T02:12:56.318Z,99.90
2018-06-12T02:15:25.190Z,99.90
2018-06-12T02:17:54.070Z,99.90
2018-06-12T02:20:22.914Z,99.90
2018-06-12T02:22:51.838Z,99.90
2018-06-12T02:25:20.717Z,99.90
2018-06-12T02:27:49.592Z,99.90
2018-06-12T02:30:18.463Z,99.90
2018-06-12T02:32:47.353Z,99.90
2018-06-12T02:35:16.215Z,99.90
2018-06-12T02:37:45.352Z,99.90
2018-06-12T02:40:14.244Z,99.90
2018-06-12T02:42:43.069Z,99.90
2018-06-12T02:45:12.290Z,99.90
2018-06-12T02:47:41.475Z,99.90
2018-06-12T02:50:10.345Z,99.90
2018-06-12T02:52:39.314Z,99.90
2018-06-12T02:55:08.204Z,99.90
2018-06-12T02:57:37.107Z,99.90
2018-06-12T03:00:05.990Z,99.90
2018-06-12T03:02:34.880Z,99.90
2018-06-12T03:05:04.402Z,99.90
2018-06-12T03:07:33.280Z,99.90
2018-06-12T03:10:02.157Z,99.90
2018-06-12T03:12:31.140Z,99.90
2018-06-12T03:14:59.974Z,99.90
2018-06-12T03:17:28.830Z,99.90
2018-06-12T03:19:57.776Z,99.90
2018-06-12T03:22:26.757Z,99.90
2018-06-12T03:27:24.091Z,99.90
2018-06-12T03:29:52.977Z,99.90
2018-06-12T03:32:21.998Z,99.90
2018-06-12T03:34:50.896Z,99.90
2018-06-12T03:37:19.759Z,99.90
2018-06-12T03:39:49.409Z,99.90
2018-06-12T03:42:18.275Z,99.90
2018-06-12T03:44:47.209Z,99.90
2018-06-12T03:47:16.088Z,99.90
2018-06-12T03:49:45.016Z,99.90
2018-06-12T03:52:14.560Z,99.90
2018-06-12T03:54:43.385Z,99.90
2018-06-12T03:57:12.190Z,99.90
2018-06-12T03:59:41.039Z,99.90
2018-06-12T04:02:09.884Z,99.90
2018-06-12T04:04:38.781Z,99.90
2018-06-12T04:09:36.109Z,99.90
2018-06-12T04:12:05.035Z,99.90
2018-06-12T04:14:33.960Z,99.90
2018-06-12T04:17:02.905Z,99.90
2018-06-12T04:19:32.183Z,99.90
2018-06-12T04:22:01.043Z,99.90
2018-06-12T04:24:30.012Z,99.90
2018-06-12T04:26:59.259Z,99.90
2018-06-12T04:29:28.129Z,99.90
2018-06-12T04:31:57.063Z,99.90
2018-06-12T04:34:25.886Z,99.90
2018-06-12T04:36:54.774Z,99.90
2018-06-12T04:39:23.702Z,99.90
2018-06-12T04:41:52.825Z,99.90
2018-06-12T04:44:21.754Z,99.90
2018-06-12T04:46:50.611Z,99.90
2018-06-12T04:49:19.504Z,99.90
2018-06-12T04:51:48.487Z,99.90
2018-06-12T04:54:17.386Z,99.90
2018-06-12T04:56:46.297Z,99.90
2018-06-12T04:59:15.287Z,99.90
2018-06-12T05:01:44.131Z,99.90
2018-06-12T05:04:12.961Z,99.90
2018-06-12T05:06:41.964Z,99.90
2018-06-12T05:09:10.908Z,99.90
2018-06-12T05:11:39.756Z,99.90
2018-06-12T05:14:08.634Z,99.90
2018-06-12T05:16:37.532Z,99.90
2018-06-12T05:19:06.387Z,99.90
2018-06-12T05:21:35.248Z,99.90
2018-06-12T05:24:04.088Z,99.90
2018-06-12T05:26:32.963Z,99.90
2018-06-12T05:29:01.884Z,99.90
2018-06-12T05:31:30.696Z,99.90
2018-06-12T05:33:59.563Z,99.90
2018-06-12T05:36:28.378Z,99.90
2018-06-12T05:38:57.183Z,99.90
2018-06-12T05:41:26.007Z,99.90
2018-06-12T05:43:54.843Z,99.90
2018-06-12T05:46:23.701Z,99.90
2018-06-12T05:48:52.961Z,99.90
2018-06-12T05:51:21.821Z,99.90
2018-06-12T05:53:50.666Z,99.90
2018-06-12T05:56:19.583Z,99.90
2018-06-12T05:58:48.481Z,99.90
2018-06-12T06:01:17.374Z,99.90
2018-06-12T06:03:46.248Z,99.90
2018-06-12T06:06:15.111Z,99.90
2018-06-12T06:08:44.043Z,99.90
2018-06-12T06:11:12.913Z,99.90
2018-06-12T06:13:41.849Z,99.90
2018-06-12T06:16:10.883Z,99.90
2018-06-12T06:18:39.869Z,99.90
2018-06-12T06:21:08.737Z,99.90
2018-06-12T06:23:38.402Z,99.90
2018-06-12T06:26:08.087Z,99.90
2018-06-12T06:28:37.332Z,99.90
2018-06-12T06:33:34.854Z,99.90
2018-06-12T06:36:03.755Z,99.90
2018-06-12T06:38:32.723Z,99.90
2018-06-12T06:41:01.636Z,99.90
2018-06-12T06:43:30.644Z,99.90
2018-06-12T06:45:59.536Z,99.90
2018-06-12T06:48:28.332Z,99.90
2018-06-12T06:50:57.598Z,99.90
2018-06-12T06:53:26.555Z,99.90
2018-06-12T06:55:55.520Z,99.90
2018-06-12T06:58:24.579Z,99.90
2018-06-12T07:00:53.491Z,99.90
2018-06-12T07:03:22.406Z,99.90
2018-06-12T07:05:52.177Z,99.90
2018-06-12T07:08:21.138Z,99.90
2018-06-12T07:10:50.321Z,99.90
2018-06-12T07:13:19.438Z,99.90
2018-06-12T07:15:48.292Z,99.90
2018-06-12T07:18:17.221Z,99.90
2018-06-12T07:21:23.042Z,99.90
2018-06-12T07:23:51.984Z,99.90
2018-06-12T07:26:20.939Z,99.90
2018-06-12T07:28:50.073Z,99.90
2018-06-12T07:31:20.217Z,99.90
2018-06-12T07:33:49.133Z,99.90
2018-06-12T07:36:18.089Z,99.90
2018-06-12T07:38:47.128Z,99.90
2018-06-12T07:41:16.124Z,99.90
2018-06-12T07:43:45.434Z,99.90
2018-06-12T07:46:14.453Z,99.90
2018-06-12T07:48:43.279Z,99.90
2018-06-12T07:51:12.227Z,99.90
2018-06-12T07:53:41.069Z,99.90
2018-06-12T07:56:09.945Z,99.90
2018-06-12T07:58:38.902Z,99.90
2018-06-12T08:01:07.911Z,99.90
2018-06-12T08:03:36.791Z,99.90
2018-06-12T08:06:05.802Z,99.90
2018-06-12T08:08:35.239Z,99.90
2018-06-12T08:11:04.231Z,99.90
2018-06-12T08:13:33.332Z,99.90
2018-06-12T08:16:02.444Z,99.90
2018-06-12T08:18:31.457Z,99.90
2018-06-12T08:21:00.363Z,99.90
2018-06-12T08:23:29.278Z,99.90
2018-06-12T08:25:58.149Z,99.90
2018-06-12T08:28:27.047Z,99.90
2018-06-12T08:30:56.500Z,99.90
2018-06-12T08:33:25.449Z,99.90
2018-06-12T08:35:54.580Z,99.90
2018-06-12T08:38:23.562Z,99.90
2018-06-12T08:40:52.452Z,99.90
2018-06-12T08:43:22.043Z,99.90
2018-06-12T08:45:51.710Z,99.90
2018-06-12T08:48:20.672Z,99.90
2018-06-12T08:50:49.632Z,99.90
2018-06-12T08:53:19.223Z,99.90
2018-06-12T08:55:48.075Z,99.90
2018-06-12T08:58:16.951Z,99.90
2018-06-12T09:00:47.030Z,99.90
2018-06-12T09:03:16.134Z,99.90
2018-06-12T09:05:45.315Z,99.90
2018-06-12T09:08:14.234Z,99.90
2018-06-12T09:10:43.121Z,99.90
2018-06-12T09:13:12.226Z,99.90
2018-06-12T09:15:41.053Z,99.90
2018-06-12T09:18:09.909Z,99.90
2018-06-12T09:20:38.864Z,99.90
2018-06-12T09:23:09.756Z,99.90
2018-06-12T09:25:39.832Z,99.90
2018-06-12T09:28:08.769Z,99.90
2018-06-12T09:30:38.055Z,99.90
2018-06-12T09:33:09.113Z,99.90
2018-06-12T09:35:38.182Z,99.90
2018-06-12T09:38:07.195Z,99.90
2018-06-12T09:40:38.901Z,99.90
2018-06-12T09:43:09.203Z,99.90
2018-06-12T09:45:38.303Z,99.90
2018-06-12T09:48:09.014Z,99.90
2018-06-12T09:50:41.789Z,99.90
2018-06-12T09:53:16.115Z,99.90
2018-06-12T09:55:45.261Z,99.80
2018-06-12T09:58:16.164Z,99.70
2018-06-12T10:00:52.189Z,99.90
2018-06-12T10:03:22.041Z,99.30
2018-06-12T10:05:55.288Z,98.70
2018-06-12T10:08:25.363Z,99.60
2018-06-12T10:10:56.920Z,99.20
2018-06-12T10:15:57.286Z,99.30
2018-06-12T10:18:29.662Z,99.60
2018-06-12T10:21:02.193Z,99.00
2018-06-12T10:23:33.356Z,98.50
2018-06-12T10:26:02.309Z,98.60
2018-06-12T10:28:33.429Z,98.10
2018-06-12T10:31:07.785Z,97.40
2018-06-12T10:33:37.940Z,98.40
2018-06-12T10:36:08.464Z,98.10
2018-06-12T10:38:37.329Z,96.90
2018-06-12T10:41:06.415Z,96.80
2018-06-12T10:43:41.722Z,97.40
2018-06-12T10:46:10.632Z,97.40
2018-06-12T10:48:39.673Z,96.40
2018-06-12T10:53:37.823Z,96.20
2018-06-12T10:56:06.744Z,95.60
2018-06-12T10:58:35.826Z,95.70
2018-06-12T11:03:34.445Z,96.10
2018-06-12T11:06:03.638Z,95.10
2018-06-12T11:08:32.521Z,95.50
2018-06-12T11:11:01.567Z,95.00
2018-06-12T11:13:31.451Z,94.20
2018-06-12T11:16:02.902Z,95.50
2018-06-12T11:18:32.257Z,94.80
2018-06-12T11:21:01.421Z,96.10
2018-06-12T11:23:32.056Z,95.80
2018-06-12T11:26:03.429Z,95.20
2018-06-12T11:28:32.286Z,95.30
2018-06-12T11:31:01.265Z,95.50
2018-06-12T11:33:30.612Z,95.20
2018-06-12T11:36:05.042Z,94.70
2018-06-12T11:38:34.009Z,94.70
2018-06-12T11:41:03.336Z,95.50
2018-06-12T11:43:34.602Z,95.10
2018-06-12T11:46:06.211Z,95.60
2018-06-12T11:48:35.182Z,94.90
2018-06-12T11:51:04.201Z,95.50
2018-06-12T11:53:33.154Z,95.60
2018-06-12T11:56:04.873Z,95.00
2018-06-12T11:58:34.044Z,96.10
2018-06-12T12:01:03.241Z,95.80
2018-06-12T12:03:33.952Z,95.60
2018-06-12T12:08:31.554Z,95.50
2018-06-12T12:11:01.788Z,94.30
2018-06-12T12:13:31.691Z,94.30
2018-06-12T12:16:00.598Z,94.90
2018-06-12T12:18:29.793Z,95.40
2018-06-12T12:20:59.589Z,95.00
2018-06-12T12:23:29.687Z,95.10
2018-06-12T12:25:58.591Z,95.80
2018-06-12T12:28:27.581Z,94.80
2018-06-12T12:30:56.349Z,95.20
2018-06-12T12:33:25.382Z,95.80
2018-06-12T12:35:54.346Z,95.60
2018-06-12T12:38:23.369Z,96.00
2018-06-12T12:40:52.341Z,96.80
2018-06-12T12:43:21.203Z,96.60
2018-06-12T12:45:50.072Z,96.40
2018-06-12T12:48:19.635Z,96.70
2018-06-12T12:50:48.508Z,97.30
2018-06-12T12:53:17.310Z,96.50
2018-06-12T12:55:47.402Z,96.10
2018-06-12T12:58:16.893Z,95.40
2018-06-12T13:00:45.802Z,95.30
2018-06-12T13:03:14.758Z,96.00
2018-06-12T13:05:43.622Z,95.80
2018-06-12T13:08:13.730Z,96.80
2018-06-12T13:10:42.788Z,95.90
2018-06-12T13:13:11.820Z,95.70
2018-06-12T13:15:41.577Z,96.00
2018-06-12T13:18:10.890Z,96.10
2018-06-12T13:20:39.751Z,96.20
2018-06-12T13:23:08.642Z,96.50
2018-06-12T13:25:37.594Z,97.20
2018-06-12T13:28:07.442Z,97.20
2018-06-12T13:30:36.293Z,97.40
2018-06-12T13:33:06.797Z,97.50
2018-06-12T13:35:36.235Z,97.20
2018-06-12T13:38:05.197Z,97.50
2018-06-12T13:40:34.115Z,97.70
2018-06-12T13:43:06.253Z,97.40
2018-06-12T13:45:35.169Z,97.00
2018-06-12T13:48:04.501Z,97.50
2018-06-12T13:50:33.394Z,97.20
2018-06-12T13:53:02.252Z,97.30
2018-06-12T13:55:31.225Z,97.70
2018-06-12T13:58:00.426Z,97.40
2018-06-12T14:00:31.814Z,97.30
2018-06-12T14:03:00.897Z,97.70
2018-06-12T14:05:29.879Z,97.60
2018-06-12T14:07:58.998Z,97.60
2018-06-12T14:10:28.594Z,97.80
2018-06-12T14:12:57.591Z,98.00
2018-06-12T14:15:31.023Z,97.90
2018-06-12T14:18:00.245Z,97.90
2018-06-12T14:20:29.276Z,98.10
2018-06-12T14:22:58.419Z,97.30
2018-06-12T14:25:27.357Z,97.80
2018-06-12T14:27:56.331Z,97.90
2018-06-12T14:32:53.781Z,97.80
2018-06-12T14:35:22.848Z,97.90
2018-06-12T14:37:52.401Z,97.90
2018-06-12T14:40:28.896Z,97.50
2018-06-12T14:42:59.144Z,97.50
2018-06-12T14:45:29.020Z,97.60
2018-06-12T14:48:04.360Z,97.40
2018-06-12T14:50:36.366Z,96.90
2018-06-12T14:55:39.817Z,97.10
2018-06-12T14:58:09.922Z,97.60
2018-06-12T15:00:39.682Z,97.20
2018-06-12T15:03:15.491Z,97.40
2018-06-12T15:05:47.888Z,97.60
2018-06-12T15:08:19.012Z,98.10
2018-06-12T15:10:47.953Z,98.40
2018-06-12T15:13:17.670Z,98.40
2018-06-12T15:15:46.739Z,99.00
2018-06-12T15:18:20.367Z,99.40
2018-06-12T15:20:54.308Z,98.90
2018-06-12T15:23:33.397Z,99.20
2018-06-12T15:26:04.899Z,99.90
2018-06-12T15:28:34.917Z,99.90
2018-06-12T15:31:05.908Z,99.40
2018-06-12T15:33:37.350Z,99.20
2018-06-12T15:36:10.286Z,99.40
2018-06-12T15:41:11.724Z,98.90
2018-06-12T15:43:41.518Z,99.40
2018-06-12T15:46:10.987Z,99.50
2018-06-12T15:48:40.477Z,99.50
2018-06-12T15:53:37.964Z,99.80
2018-06-12T15:56:07.219Z,99.90
2018-06-12T15:58:36.147Z,99.80
2018-06-12T16:01:05.791Z,99.70
2018-06-12T16:03:34.751Z,99.80
2018-06-12T16:06:03.856Z,99.90
2018-06-12T16:08:34.114Z,99.90
2018-06-12T16:11:03.479Z,99.90
2018-06-12T16:13:33.600Z,99.90
2018-06-12T16:16:02.587Z,99.90
2018-06-12T16:18:31.618Z,99.90
2018-06-12T16:21:00.519Z,99.90
2018-06-12T16:23:29.382Z,99.90
2018-06-12T16:25:58.975Z,99.90
2018-06-12T16:28:27.845Z,99.90
2018-06-12T16:30:56.750Z,99.90
2018-06-12T16:33:25.599Z,99.90
2018-06-12T16:35:54.555Z,99.90
2018-06-12T16:38:23.471Z,99.90
2018-06-12T16:40:52.321Z,99.90
2018-06-12T16:43:21.303Z,99.90
2018-06-12T16:45:50.205Z,99.90
2018-06-12T16:48:19.056Z,99.90
2018-06-12T16:50:48.003Z,99.90
2018-06-12T16:53:16.883Z,99.90
2018-06-12T16:55:45.906Z,99.90
2018-06-12T16:58:15.325Z,99.90
2018-06-12T17:00:44.422Z,99.90
2018-06-12T17:03:13.368Z,99.90
2018-06-12T17:05:42.390Z,99.90
2018-06-12T17:08:11.465Z,99.90
2018-06-12T17:10:40.402Z,99.90
2018-06-12T17:13:09.279Z,99.90
2018-06-12T17:15:38.376Z,99.90
2018-06-12T17:20:36.468Z,99.90
2018-06-12T17:23:05.459Z,99.90
2018-06-12T17:25:34.463Z,99.90
2018-06-12T17:28:03.717Z,99.90
2018-06-12T17:30:33.035Z,99.90
2018-06-12T17:33:02.057Z,99.90
2018-06-12T17:35:30.958Z,99.90
2018-06-12T17:38:00.121Z,99.90
2018-06-12T17:40:29.154Z,99.90
2018-06-12T17:42:58.028Z,99.90
2018-06-12T17:45:26.900Z,99.90
2018-06-12T17:47:55.866Z,99.90
2018-06-12T17:50:26.630Z,99.90
2018-06-12T17:52:55.567Z,99.90
2018-06-12T17:55:24.576Z,99.90
2018-06-12T17:57:53.531Z,99.90
2018-06-12T18:00:22.890Z,99.90
2018-06-12T18:02:52.023Z,99.90
2018-06-12T18:05:20.867Z,99.90
2018-06-12T18:07:49.794Z,99.90
2018-06-12T18:10:19.951Z,99.90
2018-06-12T18:12:49.319Z,99.90
2018-06-12T18:15:19.195Z,99.90
2018-06-12T18:17:48.123Z,99.90
2018-06-12T18:20:21.280Z,99.90
2018-06-12T18:22:50.193Z,99.90
2018-06-12T18:25:20.639Z,99.90
2018-06-12T18:27:54.106Z,99.90
2018-06-12T18:30:24.258Z,99.90
2018-06-12T18:32:53.317Z,99.90
2018-06-12T18:35:22.866Z,99.90
2018-06-12T18:37:52.199Z,99.90
2018-06-12T18:40:21.372Z,99.90
2018-06-12T18:42:50.675Z,99.90
2018-06-12T18:45:25.168Z,99.90
2018-06-12T18:47:57.108Z,99.90
2018-06-12T18:50:28.462Z,99.90
2018-06-12T18:52:57.592Z,99.90
2018-06-12T18:55:26.797Z,99.90
2018-06-12T18:57:57.861Z,99.90
2018-06-12T19:03:04.782Z,99.90
2018-06-12T19:05:34.930Z,99.90
2018-06-12T19:08:03.888Z,99.90
2018-06-12T19:10:36.100Z,99.90
2018-06-12T19:13:05.392Z,99.90
2018-06-12T19:15:35.348Z,99.90
2018-06-12T19:18:10.805Z,99.90
2018-06-12T19:20:40.997Z,99.90
2018-06-12T19:23:10.118Z,99.90
2018-06-12T19:25:41.072Z,99.90
2018-06-12T19:28:12.256Z,99.90
2018-06-12T19:30:43.133Z,99.90
2018-06-12T19:33:13.093Z,99.90
2018-06-12T19:35:43.600Z,99.90
2018-06-12T19:38:14.699Z,99.90
2018-06-12T19:40:44.045Z,99.90
2018-06-12T19:43:18.685Z,99.90
2018-06-12T19:45:48.981Z,99.90
2018-06-12T19:48:18.829Z,99.90
2018-06-12T19:50:50.420Z,99.90
2018-06-12T19:53:24.984Z,99.90
2018-06-12T19:55:54.711Z,99.90
2018-06-12T19:58:25.777Z,99.90
2018-06-12T20:00:56.224Z,99.90
2018-06-12T20:03:25.946Z,99.90
2018-06-12T20:05:54.991Z,99.90
2018-06-12T20:08:25.748Z,99.90
2018-06-12T20:11:00.228Z,99.90
2018-06-12T20:13:30.484Z,99.90
2018-06-12T20:15:59.696Z,99.90
2018-06-12T20:18:29.714Z,99.90
2018-06-12T20:20:58.926Z,99.90
2018-06-12T20:23:28.459Z,99.90
2018-06-12T20:25:59.389Z,99.90
2018-06-12T20:28:28.663Z,99.90
2018-06-12T20:33:26.527Z,99.90
2018-06-12T20:35:55.884Z,99.90
2018-06-12T20:38:26.359Z,99.90
2018-06-12T20:40:55.320Z,99.90
2018-06-12T20:43:24.399Z,99.90
2018-06-12T20:45:53.451Z,99.90
2018-06-12T20:48:22.631Z,99.90
2018-06-12T20:50:51.737Z,99.90
2018-06-12T20:53:20.725Z,99.90
2018-06-12T20:55:49.873Z,99.90
2018-06-12T20:58:18.812Z,99.90
2018-06-12T21:00:47.715Z,99.90
2018-06-12T21:03:16.677Z,99.90
2018-06-12T21:05:46.210Z,99.90
2018-06-12T21:08:15.134Z,99.90
2018-06-12T21:10:43.975Z,99.90
2018-06-12T21:13:12.840Z,99.90
2018-06-12T21:15:41.765Z,99.90
2018-06-12T21:18:10.658Z,99.90
2018-06-12T21:20:39.563Z,99.90
2018-06-12T21:23:08.405Z,99.90
2018-06-12T21:25:37.533Z,99.90
2018-06-12T21:28:06.341Z,99.90
2018-06-12T21:30:35.275Z,99.90
2018-06-12T21:33:04.252Z,99.90
2018-06-12T21:35:33.262Z,99.90
2018-06-12T21:38:02.268Z,99.90
2018-06-12T21:40:31.140Z,99.90
2018-06-12T21:43:00.003Z,99.90
2018-06-12T21:45:28.838Z,99.90
2018-06-12T21:47:57.948Z,99.90
2018-06-12T21:50:26.843Z,99.90
2018-06-12T21:52:55.753Z,99.90
2018-06-12T21:55:24.652Z,99.90
2018-06-12T21:57:53.505Z,99.90
2018-06-12T22:00:32.908Z,99.90
2018-06-12T22:03:02.156Z,99.90
2018-06-12T22:05:30.985Z,99.90
2018-06-12T22:07:59.827Z,99.90
2018-06-12T22:10:28.814Z,99.90
2018-06-12T22:12:57.638Z,99.90
2018-06-12T22:15:26.578Z,99.90
2018-06-12T22:17:56.482Z,99.90
2018-06-12T22:20:25.338Z,99.90
2018-06-12T22:22:54.252Z,99.90
2018-06-12T22:25:23.150Z,99.90
2018-06-12T22:27:52.031Z,99.90
2018-06-12T22:30:20.985Z,99.90
2018-06-12T22:32:49.890Z,99.90
2018-06-12T22:35:19.089Z,99.90
2018-06-12T22:37:47.924Z,99.90
2018-06-12T22:40:16.771Z,99.90
2018-06-12T22:42:46.252Z,99.90
2018-06-12T22:45:15.132Z,99.90
2018-06-12T22:47:44.319Z,99.90
2018-06-12T22:50:13.170Z,99.90
2018-06-12T22:52:42.038Z,99.90
2018-06-12T22:55:10.966Z,99.90
2018-06-12T22:57:39.908Z,99.90
2018-06-12T23:00:08.792Z,99.90
2018-06-12T23:02:37.603Z,99.90
2018-06-12T23:05:06.504Z,99.90
2018-06-12T23:07:35.355Z,99.90
2018-06-12T23:10:04.253Z,99.90
2018-06-12T23:12:33.107Z,99.90
2018-06-12T23:15:01.950Z,99.90
2018-06-12T23:17:30.797Z,99.90
2018-06-12T23:20:10.681Z,99.90
2018-06-12T23:22:39.527Z,99.90
2018-06-12T23:25:08.467Z,99.90
2018-06-12T23:27:37.312Z,99.90
2018-06-12T23:30:06.155Z,99.90
2018-06-12T23:32:34.990Z,99.90
2018-06-12T23:35:03.862Z,99.90
2018-06-12T23:37:32.736Z,99.90
2018-06-12T23:40:01.727Z,99.90
2018-06-12T23:42:30.540Z,99.90
2018-06-12T23:44:59.390Z,99.90
2018-06-12T23:47:28.246Z,99.90
2018-06-12T23:49:57.121Z,99.90
2018-06-12T23:52:25.927Z,99.90
2018-06-12T23:54:54.778Z,99.90
2018-06-12T23:57:23.640Z,99.90
2018-06-12T23:59:52.493Z,99.90
